createdAt,value
2018-08-18T00:01:01.721Z,97397.74
2018-08-18T00:05:56.644Z,97394.54
2018-08-18T00:10:51.541Z,97402.36
2018-08-18T00:15:46.445Z,97403.02
2018-08-18T00:20:41.412Z,97403.99
2018-08-18T00:25:36.308Z,97402.66
2018-08-18T00:30:31.236Z,97403.64
2018-08-18T00:35:26.212Z,97393.77
2018-08-18T00:40:21.029Z,97394.66
2018-08-18T00:45:15.838Z,97393.01
2018-08-18T00:50:11.518Z,97394.68
2018-08-18T00:55:06.494Z,97390.78
2018-08-18T01:00:01.381Z,97385.77
2018-08-18T01:05:01.684Z,97393.83
2018-08-18T01:09:56.845Z,97396.32
2018-08-18T01:14:51.932Z,97395.52
2018-08-18T01:19:47.209Z,97400.31
2018-08-18T01:24:42.011Z,97401.23
2018-08-18T01:29:36.929Z,97400.06
2018-08-18T01:34:31.696Z,97410.56
2018-08-18T01:39:26.559Z,97409.20
2018-08-18T01:44:23.892Z,97412.95
2018-08-18T01:49:29.083Z,97405.45
2018-08-18T01:54:23.893Z,97404.97
2018-08-18T01:59:19.635Z,97412.06
2018-08-18T02:04:17.094Z,97422.10
2018-08-18T02:09:11.839Z,97421.44
2018-08-18T02:14:07.261Z,97416.00
2018-08-18T02:19:02.260Z,97420.28
2018-08-18T02:23:57.920Z,97423.25
2018-08-18T02:28:52.747Z,97423.95
2018-08-18T02:33:47.724Z,97426.47
2018-08-18T02:38:46.626Z,97429.32
2018-08-18T02:43:41.418Z,97427.32
2018-08-18T02:48:36.159Z,97434.93
2018-08-18T02:53:30.951Z,97426.49
2018-08-18T02:58:25.883Z,97426.66
2018-08-18T03:03:20.664Z,97432.13
2018-08-18T03:08:15.391Z,97433.31
2018-08-18T03:13:10.223Z,97428.96
2018-08-18T03:18:05.132Z,97429.63
2018-08-18T03:22:59.999Z,97430.63
2018-08-18T03:27:54.773Z,97437.95
2018-08-18T03:32:49.561Z,97438.11
2018-08-18T03:37:44.247Z,97441.45
2018-08-18T03:42:42.853Z,97446.62
2018-08-18T03:47:37.564Z,97449.42
2018-08-18T03:52:32.416Z,97449.59
2018-08-18T03:57:46.081Z,97451.06
2018-08-18T04:02:41.113Z,97455.25
2018-08-18T04:07:39.912Z,97446.24
2018-08-18T04:12:34.560Z,97449.73
2018-08-18T04:17:32.386Z,97454.41
2018-08-18T04:22:27.170Z,97454.08
2018-08-18T04:27:39.766Z,97451.73
2018-08-18T04:32:55.627Z,97454.70
2018-08-18T04:37:51.410Z,97458.41
2018-08-18T04:42:46.288Z,97459.57
2018-08-18T04:47:43.534Z,97464.39
2018-08-18T04:52:38.356Z,97461.75
2018-08-18T04:57:35.492Z,97465.09
2018-08-18T05:02:30.189Z,97463.44
2018-08-18T05:07:25.116Z,97465.23
2018-08-18T05:12:20.027Z,97463.95
2018-08-18T05:17:14.922Z,97469.95
2018-08-18T05:22:09.775Z,97470.50
2018-08-18T05:27:14.488Z,97467.69
2018-08-18T05:32:10.756Z,97470.70
2018-08-18T05:37:05.975Z,97467.73
2018-08-18T05:42:02.278Z,97471.43
2018-08-18T05:46:57.808Z,97468.46
2018-08-18T05:51:54.073Z,97468.80
2018-08-18T05:56:54.611Z,97473.45
2018-08-18T06:01:49.786Z,97481.11
2018-08-18T06:06:45.671Z,97479.45
2018-08-18T06:24:36.223Z,97487.61
2018-08-18T06:29:31.892Z,97502.11
2018-08-18T06:34:28.425Z,97503.27
2018-08-18T06:39:23.507Z,97497.45
2018-08-18T06:44:22.319Z,97504.44
2018-08-18T06:49:17.220Z,97505.44
2018-08-18T06:54:12.325Z,97507.94
2018-08-18T06:59:09.990Z,97510.64
2018-08-18T07:04:05.007Z,97512.80
2018-08-18T07:08:59.899Z,97516.78
2018-08-18T07:13:54.736Z,97520.06
2018-08-18T07:18:49.525Z,97520.16
2018-08-18T07:23:44.447Z,97519.44
2018-08-18T07:28:39.297Z,97517.89
2018-08-18T07:33:34.025Z,97518.20
2018-08-18T07:38:28.803Z,97512.19
2018-08-18T07:43:30.225Z,97513.88
2018-08-18T07:48:24.963Z,97518.82
2018-08-18T07:53:19.774Z,97523.61
2018-08-18T07:58:19.084Z,97525.92
2018-08-18T08:03:15.175Z,97526.59
2018-08-18T08:08:10.399Z,97526.84
2018-08-18T08:13:05.143Z,97533.80
2018-08-18T08:17:59.944Z,97532.41
2018-08-18T08:22:55.759Z,97535.69
2018-08-18T08:27:52.365Z,97533.16
2018-08-18T08:32:47.763Z,97542.41
2018-08-18T08:37:43.070Z,97544.81
2018-08-18T08:42:38.541Z,97544.82
2018-08-18T08:47:33.177Z,97535.42
2018-08-18T08:52:33.377Z,97538.95
2018-08-18T08:57:28.125Z,97528.92
2018-08-18T09:02:22.718Z,97527.53
2018-08-18T09:07:17.875Z,97523.19
2018-08-18T09:12:12.615Z,97520.41
2018-08-18T09:17:07.708Z,97523.08
2018-08-18T09:22:04.831Z,97517.63
2018-08-18T09:27:03.571Z,97517.20
2018-08-18T09:31:59.310Z,97515.19
2018-08-18T09:36:54.262Z,97510.02
2018-08-18T09:41:50.037Z,97499.19
2018-08-18T09:46:45.504Z,97503.66
2018-08-18T09:51:40.460Z,97503.69
2018-08-18T09:56:35.179Z,97499.84
2018-08-18T10:01:29.852Z,97504.33
2018-08-18T10:06:24.535Z,97502.72
2018-08-18T10:11:19.156Z,97498.85
2018-08-18T10:16:13.801Z,97494.36
2018-08-18T10:21:08.511Z,97492.00
2018-08-18T10:26:03.092Z,97481.80
2018-08-18T10:30:57.748Z,97489.50
2018-08-18T10:35:52.320Z,97476.81
2018-08-18T10:40:46.917Z,97485.84
2018-08-18T10:45:41.631Z,97471.64
2018-08-18T10:51:53.595Z,97470.10
2018-08-18T10:56:48.705Z,97475.80
2018-08-18T11:02:03.737Z,97471.95
2018-08-18T11:06:58.394Z,97469.95
2018-08-18T11:11:53.128Z,97475.39
2018-08-18T11:16:48.190Z,97481.20
2018-08-18T11:21:42.864Z,97480.09
2018-08-18T11:26:40.598Z,97476.08
2018-08-18T11:31:35.506Z,97475.81
2018-08-18T11:36:30.240Z,97475.03
2018-08-18T11:41:25.300Z,97464.34
2018-08-18T11:46:19.900Z,97462.60
2018-08-18T11:51:14.598Z,97460.97
2018-08-18T11:56:09.218Z,97452.80
2018-08-18T12:01:03.876Z,97441.41
2018-08-18T12:05:59.850Z,97444.83
2018-08-18T12:10:56.369Z,97437.69
2018-08-18T12:16:12.574Z,97431.80
2018-08-18T12:21:07.343Z,97431.04
2018-08-18T12:26:05.901Z,97427.50
2018-08-18T12:31:00.723Z,97430.14
2018-08-18T12:35:55.385Z,97425.56
2018-08-18T12:40:50.235Z,97422.77
2018-08-18T12:45:48.647Z,97413.28
2018-08-18T12:50:43.265Z,97407.92
2018-08-18T12:55:37.947Z,97403.94
2018-08-18T13:00:32.540Z,97409.87
2018-08-18T13:05:27.924Z,97396.27
2018-08-18T13:10:30.084Z,97394.47
2018-08-18T13:15:24.906Z,97389.92
2018-08-18T13:20:24.146Z,97383.39
2018-08-18T13:25:18.961Z,97379.81
2018-08-18T13:30:13.539Z,97387.49
2018-08-18T13:35:08.162Z,97378.00
2018-08-18T13:40:02.817Z,97374.88
2018-08-18T13:44:57.562Z,97369.72
2018-08-18T13:49:59.302Z,97355.38
2018-08-18T13:54:54.350Z,97363.13
2018-08-18T13:59:49.439Z,97356.40
2018-08-18T14:04:44.512Z,97353.55
2018-08-18T14:09:41.713Z,97349.47
2018-08-18T14:14:36.360Z,97345.82
2018-08-18T14:19:33.934Z,97336.45
2018-08-18T14:24:35.202Z,97336.86
2018-08-18T14:29:31.752Z,97334.46
2018-08-18T14:34:26.509Z,97334.61
2018-08-18T14:39:37.852Z,97335.16
2018-08-18T14:44:32.457Z,97338.47
2018-08-18T14:49:27.123Z,97337.05
2018-08-18T14:54:26.999Z,97327.75
2018-08-18T14:59:25.871Z,97321.58
2018-08-18T15:04:20.658Z,97320.91
2018-08-18T15:09:31.344Z,97316.55
2018-08-18T15:14:26.542Z,97317.00
2018-08-18T15:19:21.144Z,97310.57
2018-08-18T15:24:15.766Z,97310.64
2018-08-18T15:29:14.402Z,97314.16
2018-08-18T15:34:18.736Z,97306.36
2018-08-18T15:39:13.442Z,97312.42
2018-08-18T15:44:10.514Z,97312.11
2018-08-18T15:49:05.171Z,97305.97
2018-08-18T15:54:00.954Z,97312.89
2018-08-18T16:11:50.063Z,97312.06
2018-08-18T16:16:57.811Z,97311.29
2018-08-18T16:21:52.471Z,97311.74
2018-08-18T16:26:47.256Z,97316.66
2018-08-18T16:31:41.932Z,97311.42
2018-08-18T16:36:41.531Z,97310.84
2018-08-18T16:41:36.159Z,97308.81
2018-08-18T16:46:31.830Z,97304.96
2018-08-18T16:51:26.569Z,97320.14
2018-08-18T16:56:29.371Z,97311.98
2018-08-18T17:01:24.183Z,97312.70
2018-08-18T17:06:18.826Z,97317.59
2018-08-18T17:16:22.109Z,97332.36
2018-08-18T17:21:16.755Z,97345.48
2018-08-18T17:26:11.514Z,97342.09
2018-08-18T17:31:06.523Z,97355.85
2018-08-18T17:41:42.018Z,97355.54
2018-08-18T17:46:40.257Z,97357.38
2018-08-18T17:51:35.838Z,97357.64
2018-08-18T17:56:32.233Z,97371.59
2018-08-18T18:01:27.107Z,97376.02
2018-08-18T18:06:23.351Z,97375.12
2018-08-18T18:11:18.044Z,97384.73
2018-08-18T18:16:26.024Z,97385.11
2018-08-18T18:21:20.683Z,97393.20
2018-08-18T18:26:15.372Z,97397.62
2018-08-18T18:31:09.987Z,97396.90
2018-08-18T18:36:04.807Z,97400.81
2018-08-18T18:40:59.844Z,97402.49
2018-08-18T18:45:54.549Z,97406.11
2018-08-18T18:50:49.788Z,97413.59
2018-08-18T18:55:49.709Z,97427.05
2018-08-18T19:00:54.878Z,97422.88
2018-08-18T19:05:50.264Z,97432.40
2018-08-18T19:10:44.915Z,97439.81
2018-08-18T19:15:39.691Z,97450.09
2018-08-18T19:20:34.332Z,97453.19
2018-08-18T19:25:28.918Z,97460.78
2018-08-18T19:30:23.589Z,97463.66
2018-08-18T19:35:18.809Z,97466.26
2018-08-18T19:40:13.403Z,97488.12
2018-08-18T19:45:08.976Z,97494.29
2018-08-18T19:50:03.900Z,97497.12
2018-08-18T19:54:58.548Z,97493.46
2018-08-18T20:00:08.138Z,97493.61
2018-08-18T20:05:02.842Z,97497.10
2018-08-18T20:09:57.519Z,97499.36
2018-08-18T20:14:52.379Z,97501.84
2018-08-18T20:19:47.042Z,97508.59
2018-08-18T20:24:42.555Z,97505.48
2018-08-18T20:29:37.264Z,97503.93
2018-08-18T20:34:31.951Z,97511.27
2018-08-18T20:39:29.615Z,97508.63
2018-08-18T20:44:24.331Z,97510.88
2018-08-18T20:49:19.448Z,97507.49
2018-08-18T20:54:14.128Z,97514.19
2018-08-18T20:59:08.795Z,97515.02
2018-08-18T21:04:03.482Z,97520.38
2018-08-18T21:08:58.094Z,97533.46
2018-08-18T21:13:52.857Z,97530.20
2018-08-18T21:18:47.463Z,97542.65
2018-08-18T21:23:42.161Z,97545.49
2018-08-18T21:28:36.799Z,97554.20
2018-08-18T21:33:31.439Z,97551.95
2018-08-18T21:38:26.120Z,97554.95
2018-08-18T21:43:33.483Z,97554.35
2018-08-18T21:48:46.325Z,97558.12
2018-08-18T21:53:40.998Z,97557.73
2018-08-18T21:58:35.672Z,97558.86
2018-08-18T22:03:30.359Z,97560.27
2018-08-18T22:08:24.926Z,97562.86
2018-08-18T22:13:19.573Z,97557.82
2018-08-18T22:18:14.561Z,97560.91
2018-08-18T22:23:09.506Z,97561.77
2018-08-18T22:28:04.268Z,97562.67
2018-08-18T22:32:59.136Z,97566.02
2018-08-18T22:37:53.864Z,97558.31
2018-08-18T22:42:48.592Z,97558.42
2018-08-18T22:47:44.346Z,97559.36
2018-08-18T22:52:39.013Z,97557.03
2018-08-18T22:57:34.019Z,97553.18
2018-08-18T23:02:28.637Z,97558.16
2018-08-18T23:07:27.811Z,97555.58
2018-08-18T23:12:22.457Z,97550.62
2018-08-18T23:17:17.334Z,97548.42
2018-08-18T23:22:28.783Z,97551.86
2018-08-18T23:27:23.429Z,97550.31
2018-08-18T23:32:22.111Z,97550.77
2018-08-18T23:37:20.805Z,97553.86
2018-08-18T23:42:19.709Z,97553.02
2018-08-18T23:47:14.798Z,97554.37
2018-08-18T23:52:09.466Z,97554.45
2018-08-18T23:57:04.218Z,97550.63
